sensor_id;sensor_type;location;lat;lon;timestamp;P1;durP1;ratioP1;P2;durP2;ratioP2
49193;SDS011;35029;50.804;12.866;2023-09-19T00:00:45;12.43;;;4.88;;
49193;SDS011;35029;50.804;12.866;2023-09-19T00:03:14;7.95;;;3.78;;
49193;SDS011;35029;50.804;12.866;2023-09-19T00:05:40;13.30;;;5.18;;
49193;SDS011;35029;50.804;12.866;2023-09-19T00:08:09;20.38;;;7.45;;
49193;SDS011;35029;50.804;12.866;2023-09-19T00:10:35;10.23;;;4.28;;
49193;SDS011;35029;50.804;12.866;2023-09-19T00:13:02;8.75;;;4.13;;
49193;SDS011;35029;50.804;12.866;2023-09-19T00:18:06;5.43;;;2.20;;
49193;SDS011;35029;50.804;12.866;2023-09-19T00:20:35;4.78;;;2.35;;
49193;SDS011;35029;50.804;12.866;2023-09-19T00:23:01;6.78;;;2.83;;
49193;SDS011;35029;50.804;12.866;2023-09-19T00:25:37;5.28;;;2.80;;
49193;SDS011;35029;50.804;12.866;2023-09-19T00:28:03;7.13;;;3.22;;
49193;SDS011;35029;50.804;12.866;2023-09-19T00:30:30;6.65;;;2.50;;
49193;SDS011;35029;50.804;12.866;2023-09-19T00:32:56;8.13;;;2.45;;
49193;SDS011;35029;50.804;12.866;2023-09-19T00:35:22;3.55;;;1.77;;
49193;SDS011;35029;50.804;12.866;2023-09-19T00:37:49;3.05;;;1.30;;
49193;SDS011;35029;50.804;12.866;2023-09-19T00:40:14;3.75;;;1.73;;
49193;SDS011;35029;50.804;12.866;2023-09-19T00:42:43;8.45;;;1.90;;
49193;SDS011;35029;50.804;12.866;2023-09-19T00:45:13;4.43;;;1.65;;
49193;SDS011;35029;50.804;12.866;2023-09-19T00:47:41;1.38;;;1.27;;
49193;SDS011;35029;50.804;12.866;2023-09-19T00:50:09;2.38;;;1.30;;
49193;SDS011;35029;50.804;12.866;2023-09-19T00:52:39;3.22;;;1.15;;
49193;SDS011;35029;50.804;12.866;2023-09-19T00:55:06;2.50;;;1.42;;
49193;SDS011;35029;50.804;12.866;2023-09-19T00:57:33;3.22;;;1.30;;
49193;SDS011;35029;50.804;12.866;2023-09-19T00:59:59;1.88;;;1.38;;
49193;SDS011;35029;50.804;12.866;2023-09-19T01:02:30;1.90;;;1.13;;
49193;SDS011;35029;50.804;12.866;2023-09-19T01:04:56;1.60;;;1.10;;
49193;SDS011;35029;50.804;12.866;2023-09-19T01:07:23;3.42;;;1.70;;
49193;SDS011;35029;50.804;12.866;2023-09-19T01:09:49;2.58;;;1.50;;
49193;SDS011;35029;50.804;12.866;2023-09-19T01:12:16;4.47;;;1.38;;
49193;SDS011;35029;50.804;12.866;2023-09-19T01:14:59;3.22;;;1.17;;
49193;SDS011;35029;50.804;12.866;2023-09-19T01:17:34;1.83;;;1.20;;
49193;SDS011;35029;50.804;12.866;2023-09-19T01:23:01;2.65;;;1.23;;
49193;SDS011;35029;50.804;12.866;2023-09-19T01:26:10;1.92;;;1.27;;
49193;SDS011;35029;50.804;12.866;2023-09-19T01:28:53;5.90;;;1.90;;
49193;SDS011;35029;50.804;12.866;2023-09-19T01:31:33;2.33;;;1.55;;
49193;SDS011;35029;50.804;12.866;2023-09-19T01:34:03;2.10;;;1.08;;
49193;SDS011;35029;50.804;12.866;2023-09-19T01:36:34;1.88;;;1.00;;
49193;SDS011;35029;50.804;12.866;2023-09-19T01:39:04;3.22;;;1.67;;
49193;SDS011;35029;50.804;12.866;2023-09-19T01:44:36;3.65;;;1.40;;
49193;SDS011;35029;50.804;12.866;2023-09-19T01:47:26;2.08;;;1.10;;
49193;SDS011;35029;50.804;12.866;2023-09-19T01:52:31;1.90;;;1.20;;
49193;SDS011;35029;50.804;12.866;2023-09-19T01:55:08;1.48;;;1.20;;
49193;SDS011;35029;50.804;12.866;2023-09-19T01:57:48;2.47;;;1.33;;
49193;SDS011;35029;50.804;12.866;2023-09-19T02:00:20;1.90;;;1.20;;
49193;SDS011;35029;50.804;12.866;2023-09-19T02:02:49;1.95;;;1.40;;
49193;SDS011;35029;50.804;12.866;2023-09-19T02:05:22;1.85;;;1.42;;
49193;SDS011;35029;50.804;12.866;2023-09-19T02:07:52;2.65;;;1.30;;
49193;SDS011;35029;50.804;12.866;2023-09-19T02:10:19;4.57;;;1.27;;
49193;SDS011;35029;50.804;12.866;2023-09-19T02:12:45;3.20;;;1.33;;
49193;SDS011;35029;50.804;12.866;2023-09-19T02:15:12;2.13;;;1.50;;
49193;SDS011;35029;50.804;12.866;2023-09-19T02:17:41;5.05;;;1.80;;
49193;SDS011;35029;50.804;12.866;2023-09-19T02:20:10;2.40;;;1.30;;
49193;SDS011;35029;50.804;12.866;2023-09-19T02:22:40;2.50;;;1.30;;
49193;SDS011;35029;50.804;12.866;2023-09-19T02:25:07;3.25;;;1.60;;
49193;SDS011;35029;50.804;12.866;2023-09-19T02:27:33;1.80;;;1.40;;
49193;SDS011;35029;50.804;12.866;2023-09-19T02:29:58;2.22;;;1.17;;
49193;SDS011;35029;50.804;12.866;2023-09-19T02:32:27;8.77;;;1.48;;
49193;SDS011;35029;50.804;12.866;2023-09-19T02:34:55;2.80;;;1.30;;
49193;SDS011;35029;50.804;12.866;2023-09-19T02:37:20;2.33;;;1.60;;
49193;SDS011;35029;50.804;12.866;2023-09-19T02:39:46;4.50;;;1.40;;
49193;SDS011;35029;50.804;12.866;2023-09-19T02:42:12;4.82;;;1.48;;
49193;SDS011;35029;50.804;12.866;2023-09-19T02:44:37;3.83;;;1.30;;
49193;SDS011;35029;50.804;12.866;2023-09-19T02:47:03;1.98;;;1.25;;
49193;SDS011;35029;50.804;12.866;2023-09-19T02:49:29;1.73;;;1.20;;
49193;SDS011;35029;50.804;12.866;2023-09-19T02:51:55;3.03;;;1.33;;
49193;SDS011;35029;50.804;12.866;2023-09-19T02:54:20;2.95;;;1.55;;
49193;SDS011;35029;50.804;12.866;2023-09-19T02:56:47;3.63;;;1.40;;
49193;SDS011;35029;50.804;12.866;2023-09-19T02:59:12;2.42;;;1.50;;
49193;SDS011;35029;50.804;12.866;2023-09-19T03:01:38;2.20;;;1.40;;
49193;SDS011;35029;50.804;12.866;2023-09-19T03:04:04;3.85;;;1.50;;
49193;SDS011;35029;50.804;12.866;2023-09-19T03:06:31;1.42;;;1.23;;
49193;SDS011;35029;50.804;12.866;2023-09-19T03:08:58;3.95;;;1.98;;
49193;SDS011;35029;50.804;12.866;2023-09-19T03:11:25;3.25;;;1.60;;
49193;SDS011;35029;50.804;12.866;2023-09-19T03:13:55;1.45;;;1.35;;
49193;SDS011;35029;50.804;12.866;2023-09-19T03:16:21;2.03;;;1.42;;
49193;SDS011;35029;50.804;12.866;2023-09-19T03:18:49;1.98;;;1.42;;
49193;SDS011;35029;50.804;12.866;2023-09-19T03:21:16;4.20;;;1.67;;
49193;SDS011;35029;50.804;12.866;2023-09-19T03:23:45;7.57;;;1.85;;
49193;SDS011;35029;50.804;12.866;2023-09-19T03:26:11;2.13;;;1.38;;
49193;SDS011;35029;50.804;12.866;2023-09-19T03:28:38;3.55;;;1.60;;
49193;SDS011;35029;50.804;12.866;2023-09-19T03:31:04;2.55;;;1.40;;
49193;SDS011;35029;50.804;12.866;2023-09-19T03:33:33;2.80;;;1.60;;
49193;SDS011;35029;50.804;12.866;2023-09-19T03:36:00;3.30;;;1.80;;
49193;SDS011;35029;50.804;12.866;2023-09-19T03:38:30;3.92;;;1.70;;
49193;SDS011;35029;50.804;12.866;2023-09-19T03:40:56;3.00;;;1.65;;
49193;SDS011;35029;50.804;12.866;2023-09-19T03:43:22;4.38;;;1.40;;
49193;SDS011;35029;50.804;12.866;2023-09-19T03:45:48;1.92;;;1.65;;
49193;SDS011;35029;50.804;12.866;2023-09-19T03:48:14;4.55;;;1.63;;
49193;SDS011;35029;50.804;12.866;2023-09-19T03:50:40;2.92;;;1.80;;
49193;SDS011;35029;50.804;12.866;2023-09-19T03:53:05;4.75;;;2.30;;
49193;SDS011;35029;50.804;12.866;2023-09-19T03:55:32;2.35;;;1.92;;
49193;SDS011;35029;50.804;12.866;2023-09-19T03:58:04;4.50;;;1.90;;
49193;SDS011;35029;50.804;12.866;2023-09-19T04:00:30;1.98;;;1.50;;
49193;SDS011;35029;50.804;12.866;2023-09-19T04:02:55;1.65;;;1.50;;
49193;SDS011;35029;50.804;12.866;2023-09-19T04:05:22;4.93;;;2.03;;
49193;SDS011;35029;50.804;12.866;2023-09-19T04:07:48;3.28;;;1.65;;
49193;SDS011;35029;50.804;12.866;2023-09-19T04:10:15;4.45;;;1.70;;
49193;SDS011;35029;50.804;12.866;2023-09-19T04:12:41;3.35;;;2.00;;
49193;SDS011;35029;50.804;12.866;2023-09-19T04:15:16;3.10;;;2.20;;
49193;SDS011;35029;50.804;12.866;2023-09-19T04:17:41;4.47;;;1.70;;
49193;SDS011;35029;50.804;12.866;2023-09-19T04:20:07;3.38;;;2.17;;
49193;SDS011;35029;50.804;12.866;2023-09-19T04:22:34;2.45;;;1.35;;
49193;SDS011;35029;50.804;12.866;2023-09-19T04:24:59;4.68;;;1.77;;
49193;SDS011;35029;50.804;12.866;2023-09-19T04:27:25;1.42;;;1.33;;
49193;SDS011;35029;50.804;12.866;2023-09-19T04:29:51;2.47;;;1.40;;
49193;SDS011;35029;50.804;12.866;2023-09-19T04:32:18;3.03;;;1.67;;
49193;SDS011;35029;50.804;12.866;2023-09-19T04:34:43;2.20;;;1.65;;
49193;SDS011;35029;50.804;12.866;2023-09-19T04:37:09;3.90;;;1.65;;
49193;SDS011;35029;50.804;12.866;2023-09-19T04:39:36;2.15;;;1.40;;
49193;SDS011;35029;50.804;12.866;2023-09-19T04:42:01;2.65;;;1.75;;
49193;SDS011;35029;50.804;12.866;2023-09-19T04:44:28;2.28;;;1.50;;
49193;SDS011;35029;50.804;12.866;2023-09-19T04:46:54;2.50;;;1.45;;
49193;SDS011;35029;50.804;12.866;2023-09-19T04:49:19;3.38;;;1.60;;
49193;SDS011;35029;50.804;12.866;2023-09-19T04:51:45;2.72;;;1.83;;
49193;SDS011;35029;50.804;12.866;2023-09-19T04:54:12;4.43;;;1.58;;
49193;SDS011;35029;50.804;12.866;2023-09-19T04:56:38;2.28;;;1.48;;
49193;SDS011;35029;50.804;12.866;2023-09-19T04:59:05;1.98;;;1.58;;
49193;SDS011;35029;50.804;12.866;2023-09-19T05:01:32;2.42;;;1.42;;
49193;SDS011;35029;50.804;12.866;2023-09-19T05:03:57;3.55;;;1.63;;
49193;SDS011;35029;50.804;12.866;2023-09-19T05:06:23;2.03;;;1.40;;
49193;SDS011;35029;50.804;12.866;2023-09-19T05:08:49;3.63;;;1.65;;
49193;SDS011;35029;50.804;12.866;2023-09-19T05:11:19;6.72;;;1.70;;
49193;SDS011;35029;50.804;12.866;2023-09-19T05:13:47;4.38;;;1.35;;
49193;SDS011;35029;50.804;12.866;2023-09-19T05:16:12;3.35;;;1.67;;
49193;SDS011;35029;50.804;12.866;2023-09-19T05:18:38;1.48;;;1.38;;
49193;SDS011;35029;50.804;12.866;2023-09-19T05:21:04;2.17;;;1.40;;
49193;SDS011;35029;50.804;12.866;2023-09-19T05:23:30;4.80;;;1.45;;
49193;SDS011;35029;50.804;12.866;2023-09-19T05:25:56;4.03;;;1.85;;
49193;SDS011;35029;50.804;12.866;2023-09-19T05:28:23;3.53;;;1.40;;
49193;SDS011;35029;50.804;12.866;2023-09-19T05:30:49;3.00;;;1.77;;
49193;SDS011;35029;50.804;12.866;2023-09-19T05:33:15;2.35;;;1.63;;
49193;SDS011;35029;50.804;12.866;2023-09-19T05:35:40;1.80;;;1.20;;
49193;SDS011;35029;50.804;12.866;2023-09-19T05:38:07;2.05;;;1.40;;
49193;SDS011;35029;50.804;12.866;2023-09-19T05:43:04;1.60;;;1.33;;
49193;SDS011;35029;50.804;12.866;2023-09-19T05:45:31;2.28;;;1.48;;
49193;SDS011;35029;50.804;12.866;2023-09-19T05:47:56;2.28;;;1.58;;
49193;SDS011;35029;50.804;12.866;2023-09-19T05:50:33;1.30;;;1.10;;
49193;SDS011;35029;50.804;12.866;2023-09-19T05:52:59;4.55;;;1.40;;
49193;SDS011;35029;50.804;12.866;2023-09-19T05:55:25;2.53;;;1.52;;
49193;SDS011;35029;50.804;12.866;2023-09-19T05:57:51;2.97;;;1.75;;
49193;SDS011;35029;50.804;12.866;2023-09-19T06:00:21;2.72;;;1.67;;
49193;SDS011;35029;50.804;12.866;2023-09-19T06:02:54;2.27;;;1.83;;
49193;SDS011;35029;50.804;12.866;2023-09-19T06:05:22;3.47;;;1.95;;
49193;SDS011;35029;50.804;12.866;2023-09-19T06:07:57;1.67;;;1.42;;
49193;SDS011;35029;50.804;12.866;2023-09-19T06:10:26;2.50;;;1.30;;
49193;SDS011;35029;50.804;12.866;2023-09-19T06:12:56;4.17;;;1.90;;
49193;SDS011;35029;50.804;12.866;2023-09-19T06:15:23;3.70;;;1.60;;
49193;SDS011;35029;50.804;12.866;2023-09-19T06:17:51;2.20;;;1.42;;
49193;SDS011;35029;50.804;12.866;2023-09-19T06:20:22;2.75;;;1.63;;
49193;SDS011;35029;50.804;12.866;2023-09-19T06:22:48;4.30;;;1.38;;
49193;SDS011;35029;50.804;12.866;2023-09-19T06:25:14;7.38;;;1.70;;
49193;SDS011;35029;50.804;12.866;2023-09-19T06:27:44;2.20;;;1.42;;
49193;SDS011;35029;50.804;12.866;2023-09-19T06:30:19;1.60;;;1.50;;
49193;SDS011;35029;50.804;12.866;2023-09-19T06:32:46;1.92;;;1.13;;
49193;SDS011;35029;50.804;12.866;2023-09-19T06:35:14;3.25;;;1.92;;
49193;SDS011;35029;50.804;12.866;2023-09-19T06:37:41;2.17;;;1.50;;
49193;SDS011;35029;50.804;12.866;2023-09-19T06:42:34;3.10;;;2.00;;
49193;SDS011;35029;50.804;12.866;2023-09-19T06:45:03;2.08;;;1.67;;
49193;SDS011;35029;50.804;12.866;2023-09-19T06:47:30;1.83;;;1.60;;
49193;SDS011;35029;50.804;12.866;2023-09-19T06:49:55;1.80;;;1.35;;
49193;SDS011;35029;50.804;12.866;2023-09-19T06:52:21;3.00;;;1.63;;
49193;SDS011;35029;50.804;12.866;2023-09-19T06:54:47;2.03;;;1.48;;
49193;SDS011;35029;50.804;12.866;2023-09-19T06:57:15;2.28;;;1.40;;
49193;SDS011;35029;50.804;12.866;2023-09-19T06:59:41;3.83;;;1.70;;
49193;SDS011;35029;50.804;12.866;2023-09-19T07:02:07;1.67;;;1.48;;
49193;SDS011;35029;50.804;12.866;2023-09-19T07:04:33;2.70;;;1.70;;
49193;SDS011;35029;50.804;12.866;2023-09-19T07:06:59;2.85;;;1.45;;
49193;SDS011;35029;50.804;12.866;2023-09-19T07:09:24;2.80;;;1.50;;
49193;SDS011;35029;50.804;12.866;2023-09-19T07:11:52;2.30;;;1.48;;
49193;SDS011;35029;50.804;12.866;2023-09-19T07:14:18;2.55;;;1.80;;
49193;SDS011;35029;50.804;12.866;2023-09-19T07:16:44;3.63;;;1.73;;
49193;SDS011;35029;50.804;12.866;2023-09-19T07:19:10;3.38;;;1.60;;
49193;SDS011;35029;50.804;12.866;2023-09-19T07:21:36;4.85;;;1.77;;
49193;SDS011;35029;50.804;12.866;2023-09-19T07:24:03;3.15;;;1.67;;
49193;SDS011;35029;50.804;12.866;2023-09-19T07:26:29;2.63;;;1.40;;
49193;SDS011;35029;50.804;12.866;2023-09-19T07:28:56;1.60;;;1.40;;
49193;SDS011;35029;50.804;12.866;2023-09-19T07:31:22;2.00;;;1.50;;
49193;SDS011;35029;50.804;12.866;2023-09-19T07:33:48;2.03;;;1.52;;
49193;SDS011;35029;50.804;12.866;2023-09-19T07:36:14;3.78;;;1.75;;
49193;SDS011;35029;50.804;12.866;2023-09-19T07:38:41;2.95;;;1.92;;
49193;SDS011;35029;50.804;12.866;2023-09-19T07:41:07;3.53;;;1.75;;
49193;SDS011;35029;50.804;12.866;2023-09-19T07:43:36;2.17;;;1.58;;
49193;SDS011;35029;50.804;12.866;2023-09-19T07:46:07;2.63;;;1.70;;
49193;SDS011;35029;50.804;12.866;2023-09-19T07:48:34;4.22;;;1.60;;
49193;SDS011;35029;50.804;12.866;2023-09-19T07:51:06;2.72;;;1.58;;
49193;SDS011;35029;50.804;12.866;2023-09-19T07:53:36;1.95;;;1.23;;
49193;SDS011;35029;50.804;12.866;2023-09-19T07:56:06;1.30;;;1.00;;
49193;SDS011;35029;50.804;12.866;2023-09-19T07:58:33;2.78;;;1.35;;
49193;SDS011;35029;50.804;12.866;2023-09-19T08:01:03;2.40;;;1.30;;
49193;SDS011;35029;50.804;12.866;2023-09-19T08:03:29;2.38;;;1.33;;
49193;SDS011;35029;50.804;12.866;2023-09-19T08:05:58;1.98;;;1.25;;
49193;SDS011;35029;50.804;12.866;2023-09-19T08:08:24;2.85;;;1.65;;
49193;SDS011;35029;50.804;12.866;2023-09-19T08:10:54;2.45;;;1.42;;
49193;SDS011;35029;50.804;12.866;2023-09-19T08:13:24;1.98;;;1.10;;
49193;SDS011;35029;50.804;12.866;2023-09-19T08:15:51;1.98;;;1.45;;
49193;SDS011;35029;50.804;12.866;2023-09-19T08:18:20;1.98;;;1.50;;
49193;SDS011;35029;50.804;12.866;2023-09-19T08:20:51;1.48;;;1.20;;
49193;SDS011;35029;50.804;12.866;2023-09-19T08:23:18;2.03;;;1.48;;
49193;SDS011;35029;50.804;12.866;2023-09-19T08:25:45;3.22;;;1.40;;
49193;SDS011;35029;50.804;12.866;2023-09-19T08:28:12;2.05;;;1.30;;
49193;SDS011;35029;50.804;12.866;2023-09-19T08:30:41;2.45;;;1.40;;
49193;SDS011;35029;50.804;12.866;2023-09-19T08:33:06;2.53;;;1.23;;
49193;SDS011;35029;50.804;12.866;2023-09-19T08:35:32;3.65;;;1.27;;
49193;SDS011;35029;50.804;12.866;2023-09-19T08:37:58;1.45;;;1.20;;
49193;SDS011;35029;50.804;12.866;2023-09-19T08:40:32;2.30;;;1.30;;
49193;SDS011;35029;50.804;12.866;2023-09-19T08:43:01;2.15;;;1.35;;
49193;SDS011;35029;50.804;12.866;2023-09-19T08:45:26;5.85;;;1.50;;
49193;SDS011;35029;50.804;12.866;2023-09-19T08:50:41;1.55;;;0.93;;
49193;SDS011;35029;50.804;12.866;2023-09-19T08:53:15;3.15;;;1.20;;
49193;SDS011;35029;50.804;12.866;2023-09-19T08:55:49;2.63;;;1.30;;
49193;SDS011;35029;50.804;12.866;2023-09-19T08:58:18;2.47;;;1.38;;
49193;SDS011;35029;50.804;12.866;2023-09-19T09:00:47;1.92;;;1.20;;
49193;SDS011;35029;50.804;12.866;2023-09-19T09:03:16;2.03;;;1.30;;
49193;SDS011;35029;50.804;12.866;2023-09-19T09:05:44;1.30;;;1.20;;
49193;SDS011;35029;50.804;12.866;2023-09-19T09:08:11;2.65;;;1.45;;
49193;SDS011;35029;50.804;12.866;2023-09-19T09:10:37;4.15;;;1.30;;
49193;SDS011;35029;50.804;12.866;2023-09-19T09:13:05;2.42;;;1.33;;
49193;SDS011;35029;50.804;12.866;2023-09-19T09:15:31;2.55;;;1.65;;
49193;SDS011;35029;50.804;12.866;2023-09-19T09:18:00;1.95;;;1.27;;
49193;SDS011;35029;50.804;12.866;2023-09-19T09:20:28;1.20;;;1.10;;
49193;SDS011;35029;50.804;12.866;2023-09-19T09:22:54;4.10;;;1.25;;
49193;SDS011;35029;50.804;12.866;2023-09-19T09:25:46;2.28;;;1.40;;
49193;SDS011;35029;50.804;12.866;2023-09-19T09:28:26;4.60;;;1.33;;
49193;SDS011;35029;50.804;12.866;2023-09-19T09:33:23;1.65;;;1.27;;
49193;SDS011;35029;50.804;12.866;2023-09-19T09:35:53;3.67;;;1.30;;
49193;SDS011;35029;50.804;12.866;2023-09-19T09:38:46;1.88;;;1.30;;
49193;SDS011;35029;50.804;12.866;2023-09-19T09:41:13;3.10;;;1.30;;
49193;SDS011;35029;50.804;12.866;2023-09-19T09:43:52;1.30;;;1.15;;
49193;SDS011;35029;50.804;12.866;2023-09-19T09:46:18;1.40;;;1.20;;
49193;SDS011;35029;50.804;12.866;2023-09-19T09:54:11;1.40;;;1.20;;
49193;SDS011;35029;50.804;12.866;2023-09-19T09:56:56;1.75;;;1.17;;
49193;SDS011;35029;50.804;12.866;2023-09-19T10:02:18;2.88;;;1.23;;
49193;SDS011;35029;50.804;12.866;2023-09-19T10:07:52;2.08;;;1.17;;
49193;SDS011;35029;50.804;12.866;2023-09-19T10:10:40;4.60;;;1.00;;
49193;SDS011;35029;50.804;12.866;2023-09-19T10:13:05;2.78;;;1.27;;
49193;SDS011;35029;50.804;12.866;2023-09-19T10:15:33;3.42;;;1.10;;
49193;SDS011;35029;50.804;12.866;2023-09-19T10:18:04;1.80;;;1.13;;
49193;SDS011;35029;50.804;12.866;2023-09-19T10:20:33;1.05;;;0.85;;
49193;SDS011;35029;50.804;12.866;2023-09-19T10:23:07;1.10;;;1.00;;
49193;SDS011;35029;50.804;12.866;2023-09-19T10:25:39;1.55;;;0.90;;
49193;SDS011;35029;50.804;12.866;2023-09-19T10:28:07;1.25;;;1.15;;
49193;SDS011;35029;50.804;12.866;2023-09-19T10:30:41;2.00;;;1.30;;
49193;SDS011;35029;50.804;12.866;2023-09-19T10:33:14;2.35;;;1.27;;
49193;SDS011;35029;50.804;12.866;2023-09-19T10:35:45;1.63;;;1.20;;
49193;SDS011;35029;50.804;12.866;2023-09-19T10:38:13;1.38;;;1.27;;
49193;SDS011;35029;50.804;12.866;2023-09-19T10:40:39;1.60;;;1.10;;
49193;SDS011;35029;50.804;12.866;2023-09-19T10:43:11;1.35;;;1.20;;
49193;SDS011;35029;50.804;12.866;2023-09-19T10:45:42;5.28;;;1.48;;
49193;SDS011;35029;50.804;12.866;2023-09-19T10:48:10;4.13;;;1.40;;
49193;SDS011;35029;50.804;12.866;2023-09-19T10:50:47;1.73;;;1.23;;
49193;SDS011;35029;50.804;12.866;2023-09-19T10:53:17;1.73;;;1.00;;
49193;SDS011;35029;50.804;12.866;2023-09-19T10:55:48;1.60;;;1.20;;
49193;SDS011;35029;50.804;12.866;2023-09-19T10:58:31;2.80;;;1.30;;
49193;SDS011;35029;50.804;12.866;2023-09-19T11:01:04;2.22;;;1.55;;
49193;SDS011;35029;50.804;12.866;2023-09-19T11:03:38;3.25;;;1.50;;
49193;SDS011;35029;50.804;12.866;2023-09-19T11:30:52;3.17;;;1.70;;
49193;SDS011;35029;50.804;12.866;2023-09-19T11:36:07;2.35;;;1.50;;
49193;SDS011;35029;50.804;12.866;2023-09-19T11:43:54;1.83;;;1.42;;
49193;SDS011;35029;50.804;12.866;2023-09-19T11:49:17;3.28;;;1.52;;
49193;SDS011;35029;50.804;12.866;2023-09-19T11:51:49;2.15;;;1.70;;
49193;SDS011;35029;50.804;12.866;2023-09-19T11:54:19;3.80;;;1.80;;
49193;SDS011;35029;50.804;12.866;2023-09-19T11:56:50;3.60;;;1.77;;
49193;SDS011;35029;50.804;12.866;2023-09-19T11:59:29;4.47;;;2.05;;
49193;SDS011;35029;50.804;12.866;2023-09-19T12:04:39;2.25;;;1.77;;
49193;SDS011;35029;50.804;12.866;2023-09-19T12:07:11;3.75;;;1.80;;
49193;SDS011;35029;50.804;12.866;2023-09-19T12:12:20;2.83;;;2.00;;
49193;SDS011;35029;50.804;12.866;2023-09-19T12:14:47;5.15;;;1.73;;
49193;SDS011;35029;50.804;12.866;2023-09-19T12:17:13;3.40;;;1.80;;
49193;SDS011;35029;50.804;12.866;2023-09-19T12:19:40;6.28;;;2.42;;
49193;SDS011;35029;50.804;12.866;2023-09-19T12:22:15;3.17;;;2.03;;
49193;SDS011;35029;50.804;12.866;2023-09-19T12:24:43;3.60;;;2.00;;
49193;SDS011;35029;50.804;12.866;2023-09-19T12:27:09;2.67;;;1.67;;
49193;SDS011;35029;50.804;12.866;2023-09-19T12:29:44;3.05;;;1.67;;
49193;SDS011;35029;50.804;12.866;2023-09-19T12:32:10;2.75;;;1.67;;
49193;SDS011;35029;50.804;12.866;2023-09-19T12:34:36;2.17;;;1.50;;
49193;SDS011;35029;50.804;12.866;2023-09-19T12:37:10;2.70;;;1.73;;
49193;SDS011;35029;50.804;12.866;2023-09-19T12:39:38;2.03;;;1.63;;
49193;SDS011;35029;50.804;12.866;2023-09-19T12:42:07;4.28;;;1.75;;
49193;SDS011;35029;50.804;12.866;2023-09-19T12:44:35;3.72;;;1.48;;
49193;SDS011;35029;50.804;12.866;2023-09-19T12:47:09;1.90;;;1.35;;
49193;SDS011;35029;50.804;12.866;2023-09-19T12:49:36;4.53;;;1.60;;
49193;SDS011;35029;50.804;12.866;2023-09-19T12:52:37;1.88;;;1.42;;
49193;SDS011;35029;50.804;12.866;2023-09-19T12:55:04;8.18;;;2.15;;
49193;SDS011;35029;50.804;12.866;2023-09-19T12:57:32;2.38;;;1.60;;
49193;SDS011;35029;50.804;12.866;2023-09-19T13:00:02;4.13;;;1.48;;
49193;SDS011;35029;50.804;12.866;2023-09-19T13:02:31;1.83;;;1.45;;
49193;SDS011;35029;50.804;12.866;2023-09-19T13:04:57;2.35;;;1.70;;
49193;SDS011;35029;50.804;12.866;2023-09-19T13:10:14;3.47;;;2.05;;
49193;SDS011;35029;50.804;12.866;2023-09-19T13:12:41;2.55;;;2.00;;
49193;SDS011;35029;50.804;12.866;2023-09-19T13:15:12;2.45;;;1.92;;
49193;SDS011;35029;50.804;12.866;2023-09-19T13:17:48;12.38;;;2.03;;
49193;SDS011;35029;50.804;12.866;2023-09-19T13:20:24;4.28;;;2.47;;
49193;SDS011;35029;50.804;12.866;2023-09-19T13:22:54;5.53;;;2.17;;
49193;SDS011;35029;50.804;12.866;2023-09-19T13:25:26;2.28;;;1.42;;
49193;SDS011;35029;50.804;12.866;2023-09-19T13:27:56;4.20;;;1.65;;
49193;SDS011;35029;50.804;12.866;2023-09-19T13:30:25;4.32;;;2.10;;
49193;SDS011;35029;50.804;12.866;2023-09-19T13:33:08;2.95;;;1.65;;
49193;SDS011;35029;50.804;12.866;2023-09-19T13:35:35;2.20;;;1.83;;
49193;SDS011;35029;50.804;12.866;2023-09-19T13:38:03;7.90;;;2.38;;
49193;SDS011;35029;50.804;12.866;2023-09-19T13:40:29;2.38;;;1.90;;
49193;SDS011;35029;50.804;12.866;2023-09-19T13:42:56;4.07;;;1.95;;
49193;SDS011;35029;50.804;12.866;2023-09-19T13:45:22;4.38;;;2.20;;
49193;SDS011;35029;50.804;12.866;2023-09-19T13:47:49;8.20;;;1.92;;
49193;SDS011;35029;50.804;12.866;2023-09-19T13:50:15;2.00;;;1.45;;
49193;SDS011;35029;50.804;12.866;2023-09-19T13:52:43;6.13;;;1.83;;
49193;SDS011;35029;50.804;12.866;2023-09-19T13:55:09;3.28;;;1.63;;
49193;SDS011;35029;50.804;12.866;2023-09-19T13:57:34;2.55;;;1.70;;
49193;SDS011;35029;50.804;12.866;2023-09-19T14:00:00;2.13;;;1.77;;
49193;SDS011;35029;50.804;12.866;2023-09-19T14:02:37;3.35;;;2.10;;
49193;SDS011;35029;50.804;12.866;2023-09-19T14:05:04;3.67;;;2.10;;
49193;SDS011;35029;50.804;12.866;2023-09-19T14:07:30;2.97;;;2.13;;
49193;SDS011;35029;50.804;12.866;2023-09-19T14:09:56;2.88;;;2.08;;
49193;SDS011;35029;50.804;12.866;2023-09-19T14:12:22;4.80;;;2.10;;
49193;SDS011;35029;50.804;12.866;2023-09-19T14:14:47;6.82;;;2.53;;
49193;SDS011;35029;50.804;12.866;2023-09-19T14:17:13;4.90;;;2.40;;
49193;SDS011;35029;50.804;12.866;2023-09-19T14:19:40;5.00;;;2.28;;
49193;SDS011;35029;50.804;12.866;2023-09-19T14:22:06;5.05;;;2.25;;
49193;SDS011;35029;50.804;12.866;2023-09-19T14:24:32;3.35;;;2.10;;
49193;SDS011;35029;50.804;12.866;2023-09-19T14:26:58;2.90;;;2.10;;
49193;SDS011;35029;50.804;12.866;2023-09-19T14:29:24;3.58;;;2.13;;
49193;SDS011;35029;50.804;12.866;2023-09-19T14:31:50;2.53;;;2.10;;
49193;SDS011;35029;50.804;12.866;2023-09-19T14:34:18;3.85;;;2.65;;
49193;SDS011;35029;50.804;12.866;2023-09-19T14:36:44;2.92;;;2.05;;
49193;SDS011;35029;50.804;12.866;2023-09-19T14:39:10;3.80;;;2.38;;
49193;SDS011;35029;50.804;12.866;2023-09-19T14:41:35;4.60;;;2.67;;
49193;SDS011;35029;50.804;12.866;2023-09-19T14:44:02;3.88;;;2.30;;
49193;SDS011;35029;50.804;12.866;2023-09-19T14:46:30;7.93;;;2.05;;
49193;SDS011;35029;50.804;12.866;2023-09-19T14:48:56;5.40;;;2.50;;
49193;SDS011;35029;50.804;12.866;2023-09-19T14:51:25;4.20;;;2.00;;
49193;SDS011;35029;50.804;12.866;2023-09-19T14:53:51;4.72;;;2.58;;
49193;SDS011;35029;50.804;12.866;2023-09-19T14:56:16;4.93;;;2.30;;
49193;SDS011;35029;50.804;12.866;2023-09-19T14:58:45;3.17;;;2.10;;
49193;SDS011;35029;50.804;12.866;2023-09-19T15:01:12;3.70;;;2.42;;
49193;SDS011;35029;50.804;12.866;2023-09-19T15:03:40;3.15;;;2.38;;
49193;SDS011;35029;50.804;12.866;2023-09-19T15:06:07;4.60;;;2.08;;
49193;SDS011;35029;50.804;12.866;2023-09-19T15:08:41;3.40;;;2.20;;
49193;SDS011;35029;50.804;12.866;2023-09-19T15:11:12;3.33;;;2.17;;
49193;SDS011;35029;50.804;12.866;2023-09-19T15:13:42;2.47;;;2.20;;
49193;SDS011;35029;50.804;12.866;2023-09-19T15:16:09;2.95;;;2.53;;
49193;SDS011;35029;50.804;12.866;2023-09-19T15:18:38;4.15;;;2.50;;
49193;SDS011;35029;50.804;12.866;2023-09-19T15:21:10;5.03;;;2.78;;
49193;SDS011;35029;50.804;12.866;2023-09-19T15:23:37;5.88;;;2.72;;
49193;SDS011;35029;50.804;12.866;2023-09-19T15:26:05;3.25;;;2.35;;
49193;SDS011;35029;50.804;12.866;2023-09-19T15:28:32;3.67;;;2.50;;
49193;SDS011;35029;50.804;12.866;2023-09-19T15:30:59;6.78;;;2.80;;
49193;SDS011;35029;50.804;12.866;2023-09-19T15:33:25;4.40;;;2.55;;
49193;SDS011;35029;50.804;12.866;2023-09-19T15:36:00;9.10;;;3.03;;
49193;SDS011;35029;50.804;12.866;2023-09-19T15:38:32;2.58;;;2.15;;
49193;SDS011;35029;50.804;12.866;2023-09-19T15:41:26;3.47;;;2.55;;
49193;SDS011;35029;50.804;12.866;2023-09-19T15:43:56;6.15;;;2.70;;
49193;SDS011;35029;50.804;12.866;2023-09-19T15:46:29;5.27;;;2.50;;
49193;SDS011;35029;50.804;12.866;2023-09-19T15:48:56;4.73;;;2.00;;
49193;SDS011;35029;50.804;12.866;2023-09-19T15:51:23;5.13;;;3.13;;
49193;SDS011;35029;50.804;12.866;2023-09-19T15:53:51;5.65;;;2.88;;
49193;SDS011;35029;50.804;12.866;2023-09-19T15:56:19;3.88;;;2.72;;
49193;SDS011;35029;50.804;12.866;2023-09-19T15:58:47;4.40;;;2.75;;